sensor_id;sensor_type;location;lat;lon;timestamp;P1;durP1;ratioP1;P2;durP2;ratioP2
56141;SDS011;42018;48.588;10.836;2022-12-07T00:04:03;12.23;;;7.97;;
56141;SDS011;42018;48.588;10.836;2022-12-07T00:06:50;11.48;;;7.57;;
56141;SDS011;42018;48.588;10.836;2022-12-07T00:09:37;12.05;;;7.93;;
56141;SDS011;42018;48.588;10.836;2022-12-07T00:12:23;10.85;;;7.00;;
56141;SDS011;42018;48.588;10.836;2022-12-07T00:15:09;11.32;;;7.97;;
56141;SDS011;42018;48.588;10.836;2022-12-07T00:17:55;11.75;;;7.78;;
56141;SDS011;42018;48.588;10.836;2022-12-07T00:20:40;12.55;;;8.45;;
56141;SDS011;42018;48.588;10.836;2022-12-07T00:23:25;11.02;;;7.63;;
56141;SDS011;42018;48.588;10.836;2022-12-07T00:26:11;11.68;;;7.65;;
56141;SDS011;42018;48.588;10.836;2022-12-07T00:29:01;11.80;;;8.00;;
56141;SDS011;42018;48.588;10.836;2022-12-07T00:31:49;10.77;;;7.60;;
56141;SDS011;42018;48.588;10.836;2022-12-07T00:34:34;12.18;;;7.68;;
56141;SDS011;42018;48.588;10.836;2022-12-07T00:37:19;11.55;;;7.75;;
56141;SDS011;42018;48.588;10.836;2022-12-07T00:40:05;11.10;;;7.85;;
56141;SDS011;42018;48.588;10.836;2022-12-07T00:42:51;12.55;;;9.02;;
56141;SDS011;42018;48.588;10.836;2022-12-07T00:45:37;10.60;;;7.47;;
56141;SDS011;42018;48.588;10.836;2022-12-07T00:48:22;11.27;;;7.65;;
56141;SDS011;42018;48.588;10.836;2022-12-07T00:51:09;12.23;;;8.07;;
56141;SDS011;42018;48.588;10.836;2022-12-07T00:53:56;12.32;;;8.23;;
56141;SDS011;42018;48.588;10.836;2022-12-07T00:56:41;11.50;;;7.90;;
56141;SDS011;42018;48.588;10.836;2022-12-07T00:59:26;11.82;;;7.97;;
56141;SDS011;42018;48.588;10.836;2022-12-07T01:02:12;12.18;;;7.53;;
56141;SDS011;42018;48.588;10.836;2022-12-07T01:04:57;10.55;;;6.43;;
56141;SDS011;42018;48.588;10.836;2022-12-07T01:07:42;14.13;;;8.23;;
56141;SDS011;42018;48.588;10.836;2022-12-07T01:10:28;10.18;;;7.13;;
56141;SDS011;42018;48.588;10.836;2022-12-07T01:13:15;11.50;;;8.05;;
56141;SDS011;42018;48.588;10.836;2022-12-07T01:16:01;12.30;;;8.75;;
56141;SDS011;42018;48.588;10.836;2022-12-07T01:18:50;12.75;;;8.13;;
56141;SDS011;42018;48.588;10.836;2022-12-07T01:21:37;13.20;;;8.35;;
56141;SDS011;42018;48.588;10.836;2022-12-07T01:24:23;11.05;;;7.30;;
56141;SDS011;42018;48.588;10.836;2022-12-07T01:27:09;14.73;;;8.43;;
56141;SDS011;42018;48.588;10.836;2022-12-07T01:29:54;11.38;;;7.53;;
56141;SDS011;42018;48.588;10.836;2022-12-07T01:32:39;11.82;;;7.82;;
56141;SDS011;42018;48.588;10.836;2022-12-07T01:35:25;12.50;;;8.18;;
56141;SDS011;42018;48.588;10.836;2022-12-07T01:38:10;10.85;;;7.63;;
56141;SDS011;42018;48.588;10.836;2022-12-07T01:40:56;12.15;;;7.53;;
56141;SDS011;42018;48.588;10.836;2022-12-07T01:46:54;13.25;;;7.75;;
56141;SDS011;42018;48.588;10.836;2022-12-07T01:49:45;11.15;;;7.95;;
56141;SDS011;42018;48.588;10.836;2022-12-07T01:52:33;11.95;;;7.97;;
56141;SDS011;42018;48.588;10.836;2022-12-07T01:55:24;10.98;;;6.95;;
56141;SDS011;42018;48.588;10.836;2022-12-07T01:58:10;11.07;;;6.82;;
56141;SDS011;42018;48.588;10.836;2022-12-07T02:00:57;12.32;;;8.00;;
56141;SDS011;42018;48.588;10.836;2022-12-07T02:03:43;11.50;;;7.47;;
56141;SDS011;42018;48.588;10.836;2022-12-07T02:06:29;12.13;;;8.30;;
56141;SDS011;42018;48.588;10.836;2022-12-07T02:09:15;11.38;;;7.25;;
56141;SDS011;42018;48.588;10.836;2022-12-07T02:12:00;11.60;;;7.88;;
56141;SDS011;42018;48.588;10.836;2022-12-07T02:14:46;11.10;;;6.97;;
56141;SDS011;42018;48.588;10.836;2022-12-07T02:17:36;11.30;;;7.45;;
56141;SDS011;42018;48.588;10.836;2022-12-07T02:20:33;10.75;;;7.28;;
56141;SDS011;42018;48.588;10.836;2022-12-07T02:32:56;10.03;;;7.00;;
56141;SDS011;42018;48.588;10.836;2022-12-07T02:41:44;12.80;;;7.00;;
56141;SDS011;42018;48.588;10.836;2022-12-07T02:44:33;12.00;;;7.57;;
56141;SDS011;42018;48.588;10.836;2022-12-07T02:47:19;11.05;;;7.63;;
56141;SDS011;42018;48.588;10.836;2022-12-07T02:50:07;10.18;;;7.32;;
56141;SDS011;42018;48.588;10.836;2022-12-07T02:52:53;10.05;;;7.10;;
56141;SDS011;42018;48.588;10.836;2022-12-07T02:55:39;10.43;;;6.88;;
56141;SDS011;42018;48.588;10.836;2022-12-07T03:11:16;10.27;;;6.90;;
56141;SDS011;42018;48.588;10.836;2022-12-07T03:14:29;11.60;;;6.90;;
56141;SDS011;42018;48.588;10.836;2022-12-07T03:17:20;10.48;;;6.97;;
56141;SDS011;42018;48.588;10.836;2022-12-07T03:20:11;11.35;;;7.15;;
56141;SDS011;42018;48.588;10.836;2022-12-07T03:22:59;9.88;;;6.97;;
56141;SDS011;42018;48.588;10.836;2022-12-07T03:25:46;10.70;;;7.50;;
56141;SDS011;42018;48.588;10.836;2022-12-07T03:28:35;10.75;;;7.43;;
56141;SDS011;42018;48.588;10.836;2022-12-07T03:31:26;11.32;;;7.43;;
56141;SDS011;42018;48.588;10.836;2022-12-07T03:34:27;12.52;;;8.10;;
56141;SDS011;42018;48.588;10.836;2022-12-07T03:37:18;11.45;;;7.40;;
56141;SDS011;42018;48.588;10.836;2022-12-07T03:42:59;11.35;;;8.13;;
56141;SDS011;42018;48.588;10.836;2022-12-07T03:48:56;11.15;;;7.18;;
56141;SDS011;42018;48.588;10.836;2022-12-07T03:58:12;13.88;;;7.85;;
56141;SDS011;42018;48.588;10.836;2022-12-07T04:01:01;11.80;;;7.70;;
56141;SDS011;42018;48.588;10.836;2022-12-07T04:03:47;11.18;;;8.00;;
56141;SDS011;42018;48.588;10.836;2022-12-07T04:06:32;11.23;;;7.70;;
56141;SDS011;42018;48.588;10.836;2022-12-07T04:09:17;11.25;;;8.00;;
56141;SDS011;42018;48.588;10.836;2022-12-07T04:12:03;10.98;;;7.70;;
56141;SDS011;42018;48.588;10.836;2022-12-07T04:14:49;11.25;;;7.75;;
56141;SDS011;42018;48.588;10.836;2022-12-07T04:17:34;12.88;;;8.32;;
56141;SDS011;42018;48.588;10.836;2022-12-07T04:20:20;11.82;;;7.93;;
56141;SDS011;42018;48.588;10.836;2022-12-07T04:23:06;11.75;;;8.30;;
56141;SDS011;42018;48.588;10.836;2022-12-07T04:25:51;13.07;;;8.40;;
56141;SDS011;42018;48.588;10.836;2022-12-07T04:28:37;13.35;;;8.90;;
56141;SDS011;42018;48.588;10.836;2022-12-07T04:31:22;12.18;;;8.15;;
56141;SDS011;42018;48.588;10.836;2022-12-07T04:34:07;14.05;;;9.23;;
56141;SDS011;42018;48.588;10.836;2022-12-07T04:36:53;12.35;;;8.57;;
56141;SDS011;42018;48.588;10.836;2022-12-07T04:39:38;13.13;;;8.93;;
56141;SDS011;42018;48.588;10.836;2022-12-07T04:42:24;12.55;;;8.70;;
56141;SDS011;42018;48.588;10.836;2022-12-07T04:45:09;13.07;;;8.73;;
56141;SDS011;42018;48.588;10.836;2022-12-07T04:47:55;12.48;;;8.23;;
56141;SDS011;42018;48.588;10.836;2022-12-07T04:50:40;14.13;;;9.43;;
56141;SDS011;42018;48.588;10.836;2022-12-07T04:53:26;12.10;;;8.18;;
56141;SDS011;42018;48.588;10.836;2022-12-07T04:56:11;12.57;;;8.35;;
56141;SDS011;42018;48.588;10.836;2022-12-07T04:58:57;13.05;;;8.52;;
56141;SDS011;42018;48.588;10.836;2022-12-07T05:01:42;13.38;;;9.32;;
56141;SDS011;42018;48.588;10.836;2022-12-07T05:04:28;12.30;;;8.38;;
56141;SDS011;42018;48.588;10.836;2022-12-07T05:07:13;12.43;;;8.65;;
56141;SDS011;42018;48.588;10.836;2022-12-07T05:09:59;13.90;;;9.60;;
56141;SDS011;42018;48.588;10.836;2022-12-07T05:12:44;19.05;;;11.60;;
56141;SDS011;42018;48.588;10.836;2022-12-07T05:15:30;16.33;;;11.35;;
56141;SDS011;42018;48.588;10.836;2022-12-07T05:18:16;13.10;;;9.20;;
56141;SDS011;42018;48.588;10.836;2022-12-07T05:21:01;13.57;;;9.45;;
56141;SDS011;42018;48.588;10.836;2022-12-07T05:23:47;14.85;;;10.40;;
56141;SDS011;42018;48.588;10.836;2022-12-07T05:26:32;14.20;;;9.70;;
56141;SDS011;42018;48.588;10.836;2022-12-07T05:29:18;14.35;;;9.50;;
56141;SDS011;42018;48.588;10.836;2022-12-07T05:32:03;12.77;;;9.15;;
56141;SDS011;42018;48.588;10.836;2022-12-07T05:34:49;13.50;;;9.25;;
56141;SDS011;42018;48.588;10.836;2022-12-07T05:37:34;13.45;;;9.27;;
56141;SDS011;42018;48.588;10.836;2022-12-07T05:40:19;18.50;;;9.18;;
56141;SDS011;42018;48.588;10.836;2022-12-07T05:43:05;15.73;;;9.60;;
56141;SDS011;42018;48.588;10.836;2022-12-07T05:45:50;14.63;;;8.82;;
56141;SDS011;42018;48.588;10.836;2022-12-07T05:48:35;15.20;;;9.27;;
56141;SDS011;42018;48.588;10.836;2022-12-07T05:51:21;15.38;;;10.43;;
56141;SDS011;42018;48.588;10.836;2022-12-07T05:54:07;17.35;;;10.38;;
56141;SDS011;42018;48.588;10.836;2022-12-07T05:56:52;14.43;;;9.95;;
56141;SDS011;42018;48.588;10.836;2022-12-07T05:59:38;13.68;;;9.48;;
56141;SDS011;42018;48.588;10.836;2022-12-07T06:02:23;15.25;;;9.48;;
56141;SDS011;42018;48.588;10.836;2022-12-07T06:05:09;14.63;;;9.23;;
56141;SDS011;42018;48.588;10.836;2022-12-07T06:07:54;14.38;;;9.40;;
56141;SDS011;42018;48.588;10.836;2022-12-07T06:10:40;15.35;;;9.80;;
56141;SDS011;42018;48.588;10.836;2022-12-07T06:13:25;27.27;;;17.55;;
56141;SDS011;42018;48.588;10.836;2022-12-07T06:16:10;17.92;;;11.82;;
56141;SDS011;42018;48.588;10.836;2022-12-07T06:18:56;15.80;;;11.00;;
56141;SDS011;42018;48.588;10.836;2022-12-07T06:21:41;15.82;;;9.77;;
56141;SDS011;42018;48.588;10.836;2022-12-07T06:24:27;14.57;;;9.40;;
56141;SDS011;42018;48.588;10.836;2022-12-07T06:27:13;14.18;;;9.65;;
56141;SDS011;42018;48.588;10.836;2022-12-07T06:29:59;15.88;;;10.60;;
56141;SDS011;42018;48.588;10.836;2022-12-07T06:32:44;14.73;;;10.07;;
56141;SDS011;42018;48.588;10.836;2022-12-07T06:35:31;14.82;;;8.43;;
56141;SDS011;42018;48.588;10.836;2022-12-07T06:38:17;17.65;;;9.65;;
56141;SDS011;42018;48.588;10.836;2022-12-07T06:41:03;16.25;;;10.27;;
56141;SDS011;42018;48.588;10.836;2022-12-07T06:43:49;18.13;;;11.07;;
56141;SDS011;42018;48.588;10.836;2022-12-07T06:46:34;17.15;;;10.77;;
56141;SDS011;42018;48.588;10.836;2022-12-07T06:49:22;15.55;;;9.10;;
56141;SDS011;42018;48.588;10.836;2022-12-07T06:52:08;14.50;;;9.57;;
56141;SDS011;42018;48.588;10.836;2022-12-07T06:54:53;18.00;;;10.48;;
56141;SDS011;42018;48.588;10.836;2022-12-07T06:57:38;16.65;;;10.18;;
56141;SDS011;42018;48.588;10.836;2022-12-07T07:00:24;16.98;;;10.18;;
56141;SDS011;42018;48.588;10.836;2022-12-07T07:03:09;18.45;;;10.40;;
56141;SDS011;42018;48.588;10.836;2022-12-07T07:05:55;16.67;;;10.68;;
56141;SDS011;42018;48.588;10.836;2022-12-07T07:08:40;16.88;;;9.82;;
56141;SDS011;42018;48.588;10.836;2022-12-07T07:11:26;14.45;;;8.70;;
56141;SDS011;42018;48.588;10.836;2022-12-07T07:14:11;14.50;;;8.18;;
56141;SDS011;42018;48.588;10.836;2022-12-07T07:16:56;13.98;;;8.15;;
56141;SDS011;42018;48.588;10.836;2022-12-07T07:19:42;14.77;;;8.95;;
56141;SDS011;42018;48.588;10.836;2022-12-07T07:22:27;16.67;;;10.05;;
56141;SDS011;42018;48.588;10.836;2022-12-07T07:25:12;17.08;;;9.80;;
56141;SDS011;42018;48.588;10.836;2022-12-07T07:27:58;14.63;;;9.07;;
56141;SDS011;42018;48.588;10.836;2022-12-07T07:30:44;16.48;;;10.52;;
56141;SDS011;42018;48.588;10.836;2022-12-07T07:33:29;16.30;;;10.10;;
56141;SDS011;42018;48.588;10.836;2022-12-07T07:36:15;14.00;;;9.70;;
56141;SDS011;42018;48.588;10.836;2022-12-07T07:39:00;14.55;;;8.68;;
56141;SDS011;42018;48.588;10.836;2022-12-07T07:41:46;14.32;;;9.02;;
56141;SDS011;42018;48.588;10.836;2022-12-07T07:44:31;16.33;;;9.93;;
56141;SDS011;42018;48.588;10.836;2022-12-07T07:47:17;17.38;;;10.55;;
56141;SDS011;42018;48.588;10.836;2022-12-07T07:50:02;17.10;;;10.93;;
56141;SDS011;42018;48.588;10.836;2022-12-07T07:52:47;16.73;;;10.70;;
56141;SDS011;42018;48.588;10.836;2022-12-07T07:55:33;15.90;;;10.90;;
56141;SDS011;42018;48.588;10.836;2022-12-07T07:58:18;16.42;;;10.60;;
56141;SDS011;42018;48.588;10.836;2022-12-07T08:01:07;17.38;;;10.38;;
56141;SDS011;42018;48.588;10.836;2022-12-07T08:03:53;21.70;;;10.75;;
56141;SDS011;42018;48.588;10.836;2022-12-07T08:06:38;16.70;;;10.98;;
56141;SDS011;42018;48.588;10.836;2022-12-07T08:09:24;18.98;;;10.77;;
56141;SDS011;42018;48.588;10.836;2022-12-07T08:12:09;18.05;;;11.10;;
56141;SDS011;42018;48.588;10.836;2022-12-07T08:14:55;17.75;;;11.13;;
56141;SDS011;42018;48.588;10.836;2022-12-07T08:17:40;18.33;;;10.98;;
56141;SDS011;42018;48.588;10.836;2022-12-07T08:20:25;18.58;;;11.35;;
56141;SDS011;42018;48.588;10.836;2022-12-07T08:23:11;15.27;;;9.60;;
56141;SDS011;42018;48.588;10.836;2022-12-07T08:26:03;16.27;;;10.27;;
56141;SDS011;42018;48.588;10.836;2022-12-07T08:28:52;15.52;;;10.35;;
56141;SDS011;42018;48.588;10.836;2022-12-07T08:31:37;16.92;;;10.80;;
56141;SDS011;42018;48.588;10.836;2022-12-07T08:34:23;17.80;;;10.43;;
56141;SDS011;42018;48.588;10.836;2022-12-07T08:37:08;19.15;;;11.80;;
56141;SDS011;42018;48.588;10.836;2022-12-07T08:39:53;21.88;;;14.15;;
56141;SDS011;42018;48.588;10.836;2022-12-07T08:42:39;20.27;;;12.57;;
56141;SDS011;42018;48.588;10.836;2022-12-07T08:45:25;17.58;;;12.18;;
56141;SDS011;42018;48.588;10.836;2022-12-07T08:48:10;15.90;;;11.63;;
56141;SDS011;42018;48.588;10.836;2022-12-07T08:50:58;22.45;;;15.50;;
56141;SDS011;42018;48.588;10.836;2022-12-07T08:53:43;18.90;;;12.98;;
56141;SDS011;42018;48.588;10.836;2022-12-07T08:56:29;23.42;;;15.80;;
56141;SDS011;42018;48.588;10.836;2022-12-07T08:59:15;20.48;;;14.48;;
56141;SDS011;42018;48.588;10.836;2022-12-07T09:02:03;17.98;;;11.45;;
56141;SDS011;42018;48.588;10.836;2022-12-07T09:04:50;26.10;;;16.00;;
56141;SDS011;42018;48.588;10.836;2022-12-07T09:07:35;21.90;;;16.05;;
56141;SDS011;42018;48.588;10.836;2022-12-07T09:10:22;17.30;;;11.73;;
56141;SDS011;42018;48.588;10.836;2022-12-07T09:13:08;23.92;;;16.27;;
56141;SDS011;42018;48.588;10.836;2022-12-07T09:15:53;22.15;;;13.68;;
56141;SDS011;42018;48.588;10.836;2022-12-07T09:18:38;21.33;;;13.45;;
56141;SDS011;42018;48.588;10.836;2022-12-07T09:24:49;18.25;;;12.05;;
56141;SDS011;42018;48.588;10.836;2022-12-07T09:27:35;20.25;;;12.52;;
56141;SDS011;42018;48.588;10.836;2022-12-07T09:30:20;20.15;;;13.38;;
56141;SDS011;42018;48.588;10.836;2022-12-07T09:33:05;19.25;;;11.93;;
56141;SDS011;42018;48.588;10.836;2022-12-07T09:35:51;16.63;;;10.05;;
56141;SDS011;42018;48.588;10.836;2022-12-07T09:38:37;19.33;;;11.43;;
56141;SDS011;42018;48.588;10.836;2022-12-07T09:41:23;17.70;;;12.80;;
56141;SDS011;42018;48.588;10.836;2022-12-07T09:44:11;18.98;;;12.93;;
56141;SDS011;42018;48.588;10.836;2022-12-07T09:46:59;15.80;;;11.13;;
56141;SDS011;42018;48.588;10.836;2022-12-07T09:49:45;17.55;;;12.35;;
56141;SDS011;42018;48.588;10.836;2022-12-07T09:52:30;16.25;;;11.07;;
56141;SDS011;42018;48.588;10.836;2022-12-07T09:55:24;16.40;;;12.15;;
56141;SDS011;42018;48.588;10.836;2022-12-07T09:58:17;23.92;;;14.82;;
56141;SDS011;42018;48.588;10.836;2022-12-07T10:01:13;22.30;;;14.00;;
56141;SDS011;42018;48.588;10.836;2022-12-07T10:04:12;20.50;;;11.43;;
56141;SDS011;42018;48.588;10.836;2022-12-07T10:07:01;16.42;;;10.73;;
56141;SDS011;42018;48.588;10.836;2022-12-07T10:09:46;17.05;;;11.27;;
56141;SDS011;42018;48.588;10.836;2022-12-07T10:12:42;15.35;;;10.07;;
56141;SDS011;42018;48.588;10.836;2022-12-07T10:21:22;15.07;;;9.25;;
56141;SDS011;42018;48.588;10.836;2022-12-07T10:24:13;14.88;;;9.57;;
56141;SDS011;42018;48.588;10.836;2022-12-07T10:26:59;14.73;;;9.32;;
56141;SDS011;42018;48.588;10.836;2022-12-07T10:29:49;17.75;;;11.00;;
56141;SDS011;42018;48.588;10.836;2022-12-07T10:32:36;17.00;;;10.75;;
56141;SDS011;42018;48.588;10.836;2022-12-07T10:38:08;20.33;;;12.35;;
56141;SDS011;42018;48.588;10.836;2022-12-07T10:41:08;13.13;;;8.35;;
56141;SDS011;42018;48.588;10.836;2022-12-07T10:43:55;12.70;;;8.88;;
56141;SDS011;42018;48.588;10.836;2022-12-07T10:46:46;12.88;;;8.52;;
56141;SDS011;42018;48.588;10.836;2022-12-07T10:49:51;17.83;;;11.65;;
56141;SDS011;42018;48.588;10.836;2022-12-07T11:08:05;12.40;;;7.65;;
56141;SDS011;42018;48.588;10.836;2022-12-07T11:11:04;10.88;;;6.78;;
56141;SDS011;42018;48.588;10.836;2022-12-07T11:17:12;11.30;;;7.45;;
56141;SDS011;42018;48.588;10.836;2022-12-07T11:38:43;11.63;;;6.75;;
56141;SDS011;42018;48.588;10.836;2022-12-07T11:41:36;12.55;;;7.85;;
56141;SDS011;42018;48.588;10.836;2022-12-07T11:47:51;11.95;;;5.90;;
56141;SDS011;42018;48.588;10.836;2022-12-07T11:53:46;10.68;;;7.30;;
56141;SDS011;42018;48.588;10.836;2022-12-07T11:56:38;10.32;;;6.65;;
56141;SDS011;42018;48.588;10.836;2022-12-07T11:59:23;12.10;;;7.18;;
56141;SDS011;42018;48.588;10.836;2022-12-07T12:02:22;12.40;;;7.80;;
56141;SDS011;42018;48.588;10.836;2022-12-07T12:05:16;11.05;;;6.43;;
56141;SDS011;42018;48.588;10.836;2022-12-07T12:23:35;9.13;;;5.30;;
56141;SDS011;42018;48.588;10.836;2022-12-07T12:26:23;9.38;;;5.63;;
56141;SDS011;42018;48.588;10.836;2022-12-07T12:29:44;8.02;;;4.90;;
56141;SDS011;42018;48.588;10.836;2022-12-07T12:41:22;9.95;;;6.22;;
56141;SDS011;42018;48.588;10.836;2022-12-07T12:50:28;9.60;;;5.97;;
56141;SDS011;42018;48.588;10.836;2022-12-07T12:59:31;9.57;;;5.70;;
56141;SDS011;42018;48.588;10.836;2022-12-07T13:02:27;8.82;;;5.28;;
56141;SDS011;42018;48.588;10.836;2022-12-07T13:08:17;8.88;;;5.35;;
56141;SDS011;42018;48.588;10.836;2022-12-07T13:11:17;10.15;;;5.78;;
56141;SDS011;42018;48.588;10.836;2022-12-07T13:20:40;17.75;;;11.52;;
56141;SDS011;42018;48.588;10.836;2022-12-07T13:23:32;9.57;;;5.65;;
56141;SDS011;42018;48.588;10.836;2022-12-07T13:29:24;14.48;;;9.70;;
56141;SDS011;42018;48.588;10.836;2022-12-07T13:32:17;10.60;;;6.10;;
56141;SDS011;42018;48.588;10.836;2022-12-07T13:35:27;11.27;;;6.32;;
56141;SDS011;42018;48.588;10.836;2022-12-07T13:38:20;14.65;;;8.80;;
56141;SDS011;42018;48.588;10.836;2022-12-07T13:41:16;10.00;;;5.72;;
56141;SDS011;42018;48.588;10.836;2022-12-07T13:44:13;11.95;;;6.97;;
56141;SDS011;42018;48.588;10.836;2022-12-07T13:47:06;10.70;;;6.05;;
56141;SDS011;42018;48.588;10.836;2022-12-07T13:49:57;8.88;;;5.45;;
56141;SDS011;42018;48.588;10.836;2022-12-07T13:52:43;9.05;;;5.63;;
56141;SDS011;42018;48.588;10.836;2022-12-07T13:55:30;12.35;;;6.30;;
56141;SDS011;42018;48.588;10.836;2022-12-07T13:58:15;15.07;;;8.77;;
56141;SDS011;42018;48.588;10.836;2022-12-07T14:01:01;18.65;;;10.38;;
56141;SDS011;42018;48.588;10.836;2022-12-07T14:03:46;12.60;;;6.90;;
56141;SDS011;42018;48.588;10.836;2022-12-07T14:06:32;14.93;;;10.30;;
56141;SDS011;42018;48.588;10.836;2022-12-07T14:09:24;13.20;;;7.00;;
56141;SDS011;42018;48.588;10.836;2022-12-07T14:12:11;9.50;;;6.55;;
56141;SDS011;42018;48.588;10.836;2022-12-07T14:14:58;8.88;;;5.75;;
56141;SDS011;42018;48.588;10.836;2022-12-07T14:17:49;11.25;;;6.50;;
56141;SDS011;42018;48.588;10.836;2022-12-07T14:20:37;7.60;;;5.03;;
56141;SDS011;42018;48.588;10.836;2022-12-07T14:23:25;10.35;;;5.60;;
56141;SDS011;42018;48.588;10.836;2022-12-07T14:26:21;13.43;;;6.00;;
56141;SDS011;42018;48.588;10.836;2022-12-07T14:32:28;9.95;;;6.13;;
56141;SDS011;42018;48.588;10.836;2022-12-07T14:35:15;8.75;;;5.47;;
56141;SDS011;42018;48.588;10.836;2022-12-07T14:38:01;14.38;;;9.48;;
56141;SDS011;42018;48.588;10.836;2022-12-07T14:40:47;11.50;;;7.82;;
56141;SDS011;42018;48.588;10.836;2022-12-07T14:43:32;13.40;;;9.73;;
56141;SDS011;42018;48.588;10.836;2022-12-07T14:46:18;11.05;;;7.63;;
56141;SDS011;42018;48.588;10.836;2022-12-07T14:49:03;12.55;;;8.13;;
56141;SDS011;42018;48.588;10.836;2022-12-07T14:51:48;17.42;;;13.18;;
56141;SDS011;42018;48.588;10.836;2022-12-07T14:54:34;14.57;;;8.55;;
56141;SDS011;42018;48.588;10.836;2022-12-07T14:57:19;14.10;;;10.10;;
56141;SDS011;42018;48.588;10.836;2022-12-07T15:00:05;17.38;;;11.55;;
56141;SDS011;42018;48.588;10.836;2022-12-07T15:02:51;12.35;;;7.50;;
56141;SDS011;42018;48.588;10.836;2022-12-07T15:05:36;13.98;;;8.80;;
56141;SDS011;42018;48.588;10.836;2022-12-07T15:08:22;10.73;;;7.20;;
56141;SDS011;42018;48.588;10.836;2022-12-07T15:11:14;9.80;;;6.25;;
56141;SDS011;42018;48.588;10.836;2022-12-07T15:14:01;9.95;;;6.05;;
56141;SDS011;42018;48.588;10.836;2022-12-07T15:16:52;16.15;;;10.45;;
56141;SDS011;42018;48.588;10.836;2022-12-07T15:19:38;13.05;;;8.40;;
56141;SDS011;42018;48.588;10.836;2022-12-07T15:22:23;10.13;;;6.47;;
56141;SDS011;42018;48.588;10.836;2022-12-07T15:25:08;16.58;;;14.20;;
56141;SDS011;42018;48.588;10.836;2022-12-07T15:27:57;9.27;;;6.63;;
56141;SDS011;42018;48.588;10.836;2022-12-07T15:30:42;10.00;;;6.57;;
56141;SDS011;42018;48.588;10.836;2022-12-07T15:33:28;19.73;;;13.80;;
56141;SDS011;42018;48.588;10.836;2022-12-07T15:36:21;19.13;;;12.93;;
56141;SDS011;42018;48.588;10.836;2022-12-07T15:39:08;12.85;;;9.18;;
56141;SDS011;42018;48.588;10.836;2022-12-07T15:41:54;13.63;;;8.43;;
56141;SDS011;42018;48.588;10.836;2022-12-07T15:44:39;9.48;;;6.93;;
56141;SDS011;42018;48.588;10.836;2022-12-07T15:47:43;10.90;;;7.05;;
56141;SDS011;42018;48.588;10.836;2022-12-07T15:50:32;9.18;;;5.85;;
56141;SDS011;42018;48.588;10.836;2022-12-07T15:53:17;14.27;;;8.32;;
56141;SDS011;42018;48.588;10.836;2022-12-07T15:56:06;13.85;;;8.45;;
56141;SDS011;42018;48.588;10.836;2022-12-07T15:58:52;22.40;;;16.10;;
56141;SDS011;42018;48.588;10.836;2022-12-07T16:01:38;21.48;;;16.45;;
56141;SDS011;42018;48.588;10.836;2022-12-07T16:04:23;14.93;;;11.07;;
56141;SDS011;42018;48.588;10.836;2022-12-07T16:07:09;15.70;;;11.95;;
56141;SDS011;42018;48.588;10.836;2022-12-07T16:09:56;11.95;;;8.48;;
56141;SDS011;42018;48.588;10.836;2022-12-07T16:12:41;20.08;;;16.08;;
56141;SDS011;42018;48.588;10.836;2022-12-07T16:15:27;10.80;;;6.90;;
56141;SDS011;42018;48.588;10.836;2022-12-07T16:18:12;11.45;;;6.72;;
56141;SDS011;42018;48.588;10.836;2022-12-07T16:20:57;11.63;;;6.78;;
56141;SDS011;42018;48.588;10.836;2022-12-07T16:23:43;9.52;;;6.40;;
56141;SDS011;42018;48.588;10.836;2022-12-07T16:26:29;11.52;;;6.22;;
56141;SDS011;42018;48.588;10.836;2022-12-07T16:29:15;10.75;;;6.28;;
56141;SDS011;42018;48.588;10.836;2022-12-07T16:32:01;8.98;;;6.25;;
56141;SDS011;42018;48.588;10.836;2022-12-07T16:34:47;8.82;;;5.85;;
56141;SDS011;42018;48.588;10.836;2022-12-07T16:37:33;12.35;;;8.80;;
56141;SDS011;42018;48.588;10.836;2022-12-07T16:40:18;9.57;;;5.85;;
56141;SDS011;42018;48.588;10.836;2022-12-07T16:43:03;9.73;;;6.38;;
56141;SDS011;42018;48.588;10.836;2022-12-07T16:45:49;9.10;;;6.13;;
56141;SDS011;42018;48.588;10.836;2022-12-07T16:48:36;9.23;;;5.60;;
56141;SDS011;42018;48.588;10.836;2022-12-07T16:51:22;10.23;;;6.10;;
56141;SDS011;42018;48.588;10.836;2022-12-07T16:54:09;8.82;;;6.03;;
56141;SDS011;42018;48.588;10.836;2022-12-07T16:56:55;13.25;;;7.18;;
56141;SDS011;42018;48.588;10.836;2022-12-07T16:59:40;9.00;;;5.95;;
56141;SDS011;42018;48.588;10.836;2022-12-07T17:02:25;9.73;;;5.78;;
56141;SDS011;42018;48.588;10.836;2022-12-07T17:05:11;20.48;;;12.40;;
56141;SDS011;42018;48.588;10.836;2022-12-07T17:07:56;12.93;;;7.70;;
56141;SDS011;42018;48.588;10.836;2022-12-07T17:10:43;14.45;;;8.55;;
56141;SDS011;42018;48.588;10.836;2022-12-07T17:13:28;14.73;;;10.07;;
56141;SDS011;42018;48.588;10.836;2022-12-07T17:16:33;14.23;;;8.98;;
56141;SDS011;42018;48.588;10.836;2022-12-07T17:19:19;12.30;;;7.93;;
56141;SDS011;42018;48.588;10.836;2022-12-07T17:22:05;19.67;;;11.48;;
56141;SDS011;42018;48.588;10.836;2022-12-07T17:24:50;13.98;;;8.40;;
56141;SDS011;42018;48.588;10.836;2022-12-07T17:27:35;11.88;;;7.93;;
56141;SDS011;42018;48.588;10.836;2022-12-07T17:30:21;12.15;;;6.63;;
56141;SDS011;42018;48.588;10.836;2022-12-07T17:33:06;10.20;;;6.93;;
56141;SDS011;42018;48.588;10.836;2022-12-07T17:35:52;17.13;;;9.75;;
56141;SDS011;42018;48.588;10.836;2022-12-07T17:38:37;13.75;;;8.77;;
56141;SDS011;42018;48.588;10.836;2022-12-07T17:41:24;13.52;;;8.07;;
56141;SDS011;42018;48.588;10.836;2022-12-07T17:44:30;12.65;;;7.75;;
56141;SDS011;42018;48.588;10.836;2022-12-07T17:47:15;13.40;;;7.43;;
56141;SDS011;42018;48.588;10.836;2022-12-07T17:50:03;10.88;;;6.22;;
56141;SDS011;42018;48.588;10.836;2022-12-07T17:52:49;9.57;;;6.15;;
56141;SDS011;42018;48.588;10.836;2022-12-07T17:55:53;11.45;;;6.10;;
56141;SDS011;42018;48.588;10.836;2022-12-07T17:58:40;8.80;;;6.00;;
56141;SDS011;42018;48.588;10.836;2022-12-07T18:01:25;9.40;;;5.45;;
56141;SDS011;42018;48.588;10.836;2022-12-07T18:04:11;10.57;;;6.18;;
56141;SDS011;42018;48.588;10.836;2022-12-07T18:06:56;9.57;;;6.22;;
56141;SDS011;42018;48.588;10.836;2022-12-07T18:09:42;10.75;;;6.50;;
56141;SDS011;42018;48.588;10.836;2022-12-07T18:12:27;10.85;;;7.03;;
56141;SDS011;42018;48.588;10.836;2022-12-07T18:15:13;13.05;;;7.30;;
56141;SDS011;42018;48.588;10.836;2022-12-07T18:17:58;11.48;;;6.93;;
56141;SDS011;42018;48.588;10.836;2022-12-07T18:20:43;10.55;;;6.03;;
56141;SDS011;42018;48.588;10.836;2022-12-07T18:23:29;11.55;;;7.07;;
56141;SDS011;42018;48.588;10.836;2022-12-07T18:26:15;10.05;;;6.80;;
56141;SDS011;42018;48.588;10.836;2022-12-07T18:29:02;10.70;;;6.32;;
56141;SDS011;42018;48.588;10.836;2022-12-07T18:31:50;9.40;;;6.00;;
56141;SDS011;42018;48.588;10.836;2022-12-07T18:34:36;11.07;;;6.72;;
56141;SDS011;42018;48.588;10.836;2022-12-07T18:37:21;10.52;;;6.82;;
56141;SDS011;42018;48.588;10.836;2022-12-07T18:40:11;11.52;;;6.75;;
56141;SDS011;42018;48.588;10.836;2022-12-07T18:42:57;10.00;;;6.20;;
56141;SDS011;42018;48.588;10.836;2022-12-07T18:45:42;10.38;;;6.10;;
56141;SDS011;42018;48.588;10.836;2022-12-07T18:48:32;11.77;;;6.80;;
56141;SDS011;42018;48.588;10.836;2022-12-07T18:51:17;9.50;;;6.25;;